sensor_id;sensor_type;location;lat;lon;timestamp;temperature;humidity
27896;DHT22;15241;48.374;10.876;2023-04-25T00:00:15;9.30;99.90
27896;DHT22;15241;48.374;10.876;2023-04-25T00:05:14;9.30;99.90
27896;DHT22;15241;48.374;10.876;2023-04-25T00:10:14;9.40;99.90
27896;DHT22;15241;48.374;10.876;2023-04-25T00:15:13;9.30;99.90
27896;DHT22;15241;48.374;10.876;2023-04-25T00:20:13;9.10;99.90
27896;DHT22;15241;48.374;10.876;2023-04-25T00:25:12;9.10;99.90
27896;DHT22;15241;48.374;10.876;2023-04-25T00:30:13;9.00;99.90
27896;DHT22;15241;48.374;10.876;2023-04-25T00:57:28;8.90;99.90
27896;DHT22;15241;48.374;10.876;2023-04-25T01:02:46;8.90;99.90
27896;DHT22;15241;48.374;10.876;2023-04-25T01:07:45;8.90;99.90
27896;DHT22;15241;48.374;10.876;2023-04-25T01:12:44;9.00;99.90
27896;DHT22;15241;48.374;10.876;2023-04-25T01:17:44;8.90;99.90
27896;DHT22;15241;48.374;10.876;2023-04-25T01:22:43;9.00;99.90
27896;DHT22;15241;48.374;10.876;2023-04-25T01:27:42;8.90;99.90
27896;DHT22;15241;48.374;10.876;2023-04-25T01:32:41;9.00;99.90
27896;DHT22;15241;48.374;10.876;2023-04-25T01:37:41;9.00;99.90
27896;DHT22;15241;48.374;10.876;2023-04-25T01:42:42;9.00;99.90
27896;DHT22;15241;48.374;10.876;2023-04-25T01:47:41;8.90;99.90
27896;DHT22;15241;48.374;10.876;2023-04-25T01:52:40;8.90;99.90
27896;DHT22;15241;48.374;10.876;2023-04-25T01:57:39;8.70;99.90
27896;DHT22;15241;48.374;10.876;2023-04-25T02:02:38;8.80;99.90
27896;DHT22;15241;48.374;10.876;2023-04-25T02:07:37;8.70;99.90
27896;DHT22;15241;48.374;10.876;2023-04-25T02:12:37;8.70;99.90
27896;DHT22;15241;48.374;10.876;2023-04-25T02:17:35;8.80;99.90
27896;DHT22;15241;48.374;10.876;2023-04-25T02:27:42;8.70;99.90
27896;DHT22;15241;48.374;10.876;2023-04-25T02:32:41;8.60;99.90
27896;DHT22;15241;48.374;10.876;2023-04-25T02:37:40;8.60;99.90
27896;DHT22;15241;48.374;10.876;2023-04-25T02:42:39;8.70;99.90
27896;DHT22;15241;48.374;10.876;2023-04-25T02:47:38;8.70;99.90
27896;DHT22;15241;48.374;10.876;2023-04-25T02:52:37;8.70;99.90
27896;DHT22;15241;48.374;10.876;2023-04-25T02:57:36;8.70;99.90
27896;DHT22;15241;48.374;10.876;2023-04-25T03:02:35;8.80;99.90
27896;DHT22;15241;48.374;10.876;2023-04-25T03:07:34;8.90;99.90
27896;DHT22;15241;48.374;10.876;2023-04-25T03:12:33;8.90;99.90
27896;DHT22;15241;48.374;10.876;2023-04-25T03:17:32;8.90;99.90
27896;DHT22;15241;48.374;10.876;2023-04-25T03:22:30;9.10;99.90
27896;DHT22;15241;48.374;10.876;2023-04-25T03:27:31;9.20;99.90
27896;DHT22;15241;48.374;10.876;2023-04-25T03:32:30;9.10;99.90
27896;DHT22;15241;48.374;10.876;2023-04-25T03:37:29;8.90;99.90
27896;DHT22;15241;48.374;10.876;2023-04-25T03:42:27;9.00;99.90
27896;DHT22;15241;48.374;10.876;2023-04-25T03:47:26;9.10;99.90
27896;DHT22;15241;48.374;10.876;2023-04-25T03:52:25;9.00;99.90
27896;DHT22;15241;48.374;10.876;2023-04-25T03:57:24;8.90;99.90
27896;DHT22;15241;48.374;10.876;2023-04-25T04:02:23;8.90;99.90
27896;DHT22;15241;48.374;10.876;2023-04-25T04:07:22;8.90;99.90
27896;DHT22;15241;48.374;10.876;2023-04-25T04:12:21;8.90;99.90
27896;DHT22;15241;48.374;10.876;2023-04-25T04:17:20;8.80;99.90
27896;DHT22;15241;48.374;10.876;2023-04-25T04:22:19;8.90;99.90
27896;DHT22;15241;48.374;10.876;2023-04-25T04:27:19;8.90;99.90
27896;DHT22;15241;48.374;10.876;2023-04-25T04:32:18;8.90;99.90
27896;DHT22;15241;48.374;10.876;2023-04-25T04:37:17;9.00;99.90
27896;DHT22;15241;48.374;10.876;2023-04-25T04:42:16;9.00;99.90
27896;DHT22;15241;48.374;10.876;2023-04-25T04:47:15;9.00;99.90
27896;DHT22;15241;48.374;10.876;2023-04-25T04:52:14;9.00;99.90
27896;DHT22;15241;48.374;10.876;2023-04-25T04:57:13;9.10;99.90
27896;DHT22;15241;48.374;10.876;2023-04-25T05:02:12;9.10;99.90
27896;DHT22;15241;48.374;10.876;2023-04-25T05:07:11;9.10;99.90
27896;DHT22;15241;48.374;10.876;2023-04-25T05:12:10;9.00;99.90
27896;DHT22;15241;48.374;10.876;2023-04-25T05:17:09;8.80;99.90
27896;DHT22;15241;48.374;10.876;2023-04-25T05:22:07;8.70;99.90
27896;DHT22;15241;48.374;10.876;2023-04-25T05:27:06;8.80;99.90
27896;DHT22;15241;48.374;10.876;2023-04-25T05:32:06;8.70;99.90
27896;DHT22;15241;48.374;10.876;2023-04-25T05:37:05;8.60;99.90
27896;DHT22;15241;48.374;10.876;2023-04-25T05:42:04;8.70;99.90
27896;DHT22;15241;48.374;10.876;2023-04-25T05:47:03;8.90;99.90
27896;DHT22;15241;48.374;10.876;2023-04-25T05:52:02;9.10;99.90
27896;DHT22;15241;48.374;10.876;2023-04-25T05:57:00;9.10;99.90
27896;DHT22;15241;48.374;10.876;2023-04-25T06:01:59;9.30;99.90
27896;DHT22;15241;48.374;10.876;2023-04-25T06:06:58;9.30;99.90
27896;DHT22;15241;48.374;10.876;2023-04-25T06:11:57;9.40;99.90
27896;DHT22;15241;48.374;10.876;2023-04-25T06:16:56;9.30;99.90
27896;DHT22;15241;48.374;10.876;2023-04-25T06:21:55;9.30;99.90
27896;DHT22;15241;48.374;10.876;2023-04-25T06:26:54;9.30;99.90
27896;DHT22;15241;48.374;10.876;2023-04-25T06:31:53;9.50;99.90
27896;DHT22;15241;48.374;10.876;2023-04-25T06:36:52;9.70;99.90
27896;DHT22;15241;48.374;10.876;2023-04-25T06:41:51;9.80;99.90
27896;DHT22;15241;48.374;10.876;2023-04-25T06:46:50;9.80;99.90
27896;DHT22;15241;48.374;10.876;2023-04-25T06:51:49;9.80;99.90
27896;DHT22;15241;48.374;10.876;2023-04-25T06:56:47;9.70;99.90
27896;DHT22;15241;48.374;10.876;2023-04-25T07:01:46;9.70;99.90
27896;DHT22;15241;48.374;10.876;2023-04-25T07:06:45;9.90;99.90
27896;DHT22;15241;48.374;10.876;2023-04-25T07:11:44;9.90;99.90
27896;DHT22;15241;48.374;10.876;2023-04-25T07:16:43;10.00;99.90
27896;DHT22;15241;48.374;10.876;2023-04-25T07:21:42;10.10;99.90
27896;DHT22;15241;48.374;10.876;2023-04-25T07:26:41;10.10;99.90
27896;DHT22;15241;48.374;10.876;2023-04-25T07:31:40;10.00;99.90
27896;DHT22;15241;48.374;10.876;2023-04-25T07:36:39;10.00;99.90
27896;DHT22;15241;48.374;10.876;2023-04-25T07:41:38;10.10;99.90
27896;DHT22;15241;48.374;10.876;2023-04-25T07:46:37;10.10;99.90
27896;DHT22;15241;48.374;10.876;2023-04-25T07:51:36;10.40;99.90
27896;DHT22;15241;48.374;10.876;2023-04-25T07:56:35;10.60;99.90
27896;DHT22;15241;48.374;10.876;2023-04-25T08:01:35;10.60;99.90
27896;DHT22;15241;48.374;10.876;2023-04-25T08:06:34;10.70;99.90
27896;DHT22;15241;48.374;10.876;2023-04-25T08:11:33;10.90;99.90
27896;DHT22;15241;48.374;10.876;2023-04-25T08:16:32;11.10;99.90
27896;DHT22;15241;48.374;10.876;2023-04-25T08:21:31;11.60;99.90
27896;DHT22;15241;48.374;10.876;2023-04-25T08:26:30;11.90;99.90
27896;DHT22;15241;48.374;10.876;2023-04-25T08:31:29;12.00;99.90
27896;DHT22;15241;48.374;10.876;2023-04-25T08:36:27;12.30;99.90
27896;DHT22;15241;48.374;10.876;2023-04-25T08:41:27;12.80;99.90
27896;DHT22;15241;48.374;10.876;2023-04-25T08:46:26;13.10;99.90
27896;DHT22;15241;48.374;10.876;2023-04-25T08:51:26;13.60;99.90
27896;DHT22;15241;48.374;10.876;2023-04-25T08:56:26;13.90;99.90
27896;DHT22;15241;48.374;10.876;2023-04-25T09:01:26;14.00;99.90
27896;DHT22;15241;48.374;10.876;2023-04-25T09:06:25;13.90;99.90
27896;DHT22;15241;48.374;10.876;2023-04-25T09:11:24;13.10;99.90
27896;DHT22;15241;48.374;10.876;2023-04-25T09:16:23;13.20;99.90
27896;DHT22;15241;48.374;10.876;2023-04-25T09:21:23;13.20;99.90
27896;DHT22;15241;48.374;10.876;2023-04-25T09:26:22;13.60;99.90
27896;DHT22;15241;48.374;10.876;2023-04-25T09:31:24;13.70;99.90
27896;DHT22;15241;48.374;10.876;2023-04-25T09:41:37;13.50;99.90
27896;DHT22;15241;48.374;10.876;2023-04-25T09:46:36;13.50;99.90
27896;DHT22;15241;48.374;10.876;2023-04-25T09:51:35;13.50;99.90
27896;DHT22;15241;48.374;10.876;2023-04-25T09:56:36;13.50;99.90
27896;DHT22;15241;48.374;10.876;2023-04-25T10:01:35;13.20;99.90
27896;DHT22;15241;48.374;10.876;2023-04-25T10:06:35;12.70;99.90
27896;DHT22;15241;48.374;10.876;2023-04-25T10:11:35;12.20;99.90
27896;DHT22;15241;48.374;10.876;2023-04-25T10:16:36;12.40;99.90
27896;DHT22;15241;48.374;10.876;2023-04-25T10:21:37;12.60;99.90
27896;DHT22;15241;48.374;10.876;2023-04-25T10:26:38;12.90;99.90
27896;DHT22;15241;48.374;10.876;2023-04-25T10:31:45;13.20;99.90
27896;DHT22;15241;48.374;10.876;2023-04-25T10:36:49;13.30;99.90
27896;DHT22;15241;48.374;10.876;2023-04-25T10:41:54;13.70;99.90
27896;DHT22;15241;48.374;10.876;2023-04-25T10:46:55;13.70;99.90
27896;DHT22;15241;48.374;10.876;2023-04-25T10:52:11;14.10;99.90
27896;DHT22;15241;48.374;10.876;2023-04-25T10:57:27;14.30;99.90
27896;DHT22;15241;48.374;10.876;2023-04-25T11:02:27;14.70;99.90
27896;DHT22;15241;48.374;10.876;2023-04-25T11:07:31;14.90;99.90
27896;DHT22;15241;48.374;10.876;2023-04-25T11:12:31;15.10;99.90
27896;DHT22;15241;48.374;10.876;2023-04-25T11:17:30;15.20;99.90
27896;DHT22;15241;48.374;10.876;2023-04-25T11:22:29;15.40;99.90
27896;DHT22;15241;48.374;10.876;2023-04-25T11:27:28;14.90;99.90
27896;DHT22;15241;48.374;10.876;2023-04-25T11:32:27;14.50;99.90
27896;DHT22;15241;48.374;10.876;2023-04-25T11:37:26;13.70;99.90
27896;DHT22;15241;48.374;10.876;2023-04-25T11:42:25;12.30;99.90
27896;DHT22;15241;48.374;10.876;2023-04-25T11:47:29;11.90;99.90
27896;DHT22;15241;48.374;10.876;2023-04-25T11:52:38;11.50;99.90
27896;DHT22;15241;48.374;10.876;2023-04-25T11:57:39;10.90;99.90
27896;DHT22;15241;48.374;10.876;2023-04-25T12:02:40;10.60;99.90
27896;DHT22;15241;48.374;10.876;2023-04-25T12:07:39;10.80;99.90
27896;DHT22;15241;48.374;10.876;2023-04-25T12:12:41;10.60;99.90
27896;DHT22;15241;48.374;10.876;2023-04-25T12:17:40;10.50;99.90
27896;DHT22;15241;48.374;10.876;2023-04-25T12:22:40;10.40;99.90
27896;DHT22;15241;48.374;10.876;2023-04-25T12:27:40;10.30;99.90
27896;DHT22;15241;48.374;10.876;2023-04-25T12:32:39;10.40;99.90
27896;DHT22;15241;48.374;10.876;2023-04-25T12:37:38;10.30;99.90
27896;DHT22;15241;48.374;10.876;2023-04-25T12:42:37;10.20;99.90
27896;DHT22;15241;48.374;10.876;2023-04-25T12:47:36;9.80;99.90
27896;DHT22;15241;48.374;10.876;2023-04-25T12:52:35;9.70;99.90
27896;DHT22;15241;48.374;10.876;2023-04-25T12:57:33;9.70;99.90
27896;DHT22;15241;48.374;10.876;2023-04-25T13:02:32;9.80;99.90
27896;DHT22;15241;48.374;10.876;2023-04-25T13:07:31;9.50;99.90
27896;DHT22;15241;48.374;10.876;2023-04-25T13:12:30;9.60;99.90
27896;DHT22;15241;48.374;10.876;2023-04-25T13:17:29;9.80;99.90
27896;DHT22;15241;48.374;10.876;2023-04-25T13:22:28;9.90;99.90
27896;DHT22;15241;48.374;10.876;2023-04-25T13:27:27;10.20;99.90
27896;DHT22;15241;48.374;10.876;2023-04-25T13:32:26;10.40;99.90
27896;DHT22;15241;48.374;10.876;2023-04-25T13:37:25;10.80;99.90
27896;DHT22;15241;48.374;10.876;2023-04-25T13:42:24;11.00;99.90
27896;DHT22;15241;48.374;10.876;2023-04-25T13:47:25;10.90;99.90
27896;DHT22;15241;48.374;10.876;2023-04-25T13:52:24;10.80;99.90
27896;DHT22;15241;48.374;10.876;2023-04-25T13:57:23;10.80;99.90
27896;DHT22;15241;48.374;10.876;2023-04-25T14:02:22;10.60;99.90
27896;DHT22;15241;48.374;10.876;2023-04-25T14:07:21;10.30;99.90
27896;DHT22;15241;48.374;10.876;2023-04-25T14:12:20;10.40;99.90
27896;DHT22;15241;48.374;10.876;2023-04-25T14:17:19;10.30;99.90
27896;DHT22;15241;48.374;10.876;2023-04-25T14:22:18;10.40;99.90
27896;DHT22;15241;48.374;10.876;2023-04-25T14:27:17;10.50;99.90
27896;DHT22;15241;48.374;10.876;2023-04-25T14:32:15;10.40;99.90
27896;DHT22;15241;48.374;10.876;2023-04-25T14:37:15;10.50;99.90
27896;DHT22;15241;48.374;10.876;2023-04-25T14:42:24;10.80;99.90
27896;DHT22;15241;48.374;10.876;2023-04-25T14:47:52;11.00;99.90
27896;DHT22;15241;48.374;10.876;2023-04-25T14:52:51;11.20;99.90
27896;DHT22;15241;48.374;10.876;2023-04-25T14:57:51;11.20;99.90
27896;DHT22;15241;48.374;10.876;2023-04-25T15:02:51;11.20;99.90
27896;DHT22;15241;48.374;10.876;2023-04-25T15:07:50;11.10;99.90
27896;DHT22;15241;48.374;10.876;2023-04-25T15:12:50;11.00;99.90
27896;DHT22;15241;48.374;10.876;2023-04-25T15:17:49;11.10;99.90
27896;DHT22;15241;48.374;10.876;2023-04-25T15:22:48;11.00;99.90
27896;DHT22;15241;48.374;10.876;2023-04-25T15:27:47;10.90;99.90
27896;DHT22;15241;48.374;10.876;2023-04-25T15:32:46;11.20;99.90
27896;DHT22;15241;48.374;10.876;2023-04-25T15:37:45;11.10;99.90
27896;DHT22;15241;48.374;10.876;2023-04-25T15:42:46;11.30;99.90
27896;DHT22;15241;48.374;10.876;2023-04-25T15:47:45;11.10;99.90
27896;DHT22;15241;48.374;10.876;2023-04-25T15:52:44;11.20;99.90
27896;DHT22;15241;48.374;10.876;2023-04-25T15:57:43;11.50;99.90
27896;DHT22;15241;48.374;10.876;2023-04-25T16:02:44;12.00;99.90
27896;DHT22;15241;48.374;10.876;2023-04-25T16:07:47;12.10;99.90
27896;DHT22;15241;48.374;10.876;2023-04-25T16:12:46;12.40;99.90
27896;DHT22;15241;48.374;10.876;2023-04-25T16:17:45;12.40;99.90
27896;DHT22;15241;48.374;10.876;2023-04-25T16:22:44;12.40;99.90
27896;DHT22;15241;48.374;10.876;2023-04-25T16:27:43;12.20;99.90
27896;DHT22;15241;48.374;10.876;2023-04-25T16:32:45;11.80;99.90
27896;DHT22;15241;48.374;10.876;2023-04-25T16:37:44;11.30;99.90
27896;DHT22;15241;48.374;10.876;2023-04-25T16:42:42;11.00;99.90
27896;DHT22;15241;48.374;10.876;2023-04-25T16:47:42;10.80;99.90
27896;DHT22;15241;48.374;10.876;2023-04-25T16:52:40;10.60;99.90
27896;DHT22;15241;48.374;10.876;2023-04-25T16:57:40;10.70;99.90
27896;DHT22;15241;48.374;10.876;2023-04-25T17:02:39;10.60;99.90
27896;DHT22;15241;48.374;10.876;2023-04-25T17:07:37;10.60;99.90
27896;DHT22;15241;48.374;10.876;2023-04-25T17:12:37;10.40;99.90
27896;DHT22;15241;48.374;10.876;2023-04-25T17:17:35;10.30;99.90
27896;DHT22;15241;48.374;10.876;2023-04-25T17:22:35;10.20;99.90
27896;DHT22;15241;48.374;10.876;2023-04-25T17:27:34;10.30;99.90
27896;DHT22;15241;48.374;10.876;2023-04-25T17:32:33;10.40;99.90
27896;DHT22;15241;48.374;10.876;2023-04-25T17:37:35;10.40;99.90
27896;DHT22;15241;48.374;10.876;2023-04-25T17:42:35;10.30;99.90
27896;DHT22;15241;48.374;10.876;2023-04-25T17:47:34;10.20;99.90
27896;DHT22;15241;48.374;10.876;2023-04-25T17:52:33;10.00;99.90
27896;DHT22;15241;48.374;10.876;2023-04-25T17:57:32;10.00;99.90
27896;DHT22;15241;48.374;10.876;2023-04-25T18:02:31;9.90;99.90
27896;DHT22;15241;48.374;10.876;2023-04-25T18:07:29;9.90;99.90
27896;DHT22;15241;48.374;10.876;2023-04-25T18:12:28;9.70;99.90
27896;DHT22;15241;48.374;10.876;2023-04-25T18:17:30;9.80;99.90
27896;DHT22;15241;48.374;10.876;2023-04-25T18:22:30;9.70;99.90
27896;DHT22;15241;48.374;10.876;2023-04-25T18:27:29;9.70;99.90
27896;DHT22;15241;48.374;10.876;2023-04-25T18:32:28;9.60;99.90
27896;DHT22;15241;48.374;10.876;2023-04-25T18:37:27;9.50;99.90
27896;DHT22;15241;48.374;10.876;2023-04-25T18:42:26;9.40;99.90
27896;DHT22;15241;48.374;10.876;2023-04-25T18:47:25;9.40;99.90
27896;DHT22;15241;48.374;10.876;2023-04-25T18:52:24;9.30;99.90
27896;DHT22;15241;48.374;10.876;2023-04-25T18:57:23;9.30;99.90
27896;DHT22;15241;48.374;10.876;2023-04-25T19:02:22;9.20;99.90
27896;DHT22;15241;48.374;10.876;2023-04-25T19:07:22;9.20;99.90
27896;DHT22;15241;48.374;10.876;2023-04-25T19:12:21;9.20;99.90
27896;DHT22;15241;48.374;10.876;2023-04-25T19:17:21;9.10;99.90
27896;DHT22;15241;48.374;10.876;2023-04-25T19:22:20;9.00;99.90
27896;DHT22;15241;48.374;10.876;2023-04-25T19:27:19;8.90;99.90
27896;DHT22;15241;48.374;10.876;2023-04-25T19:32:18;9.00;99.90
27896;DHT22;15241;48.374;10.876;2023-04-25T19:37:17;8.90;99.90
27896;DHT22;15241;48.374;10.876;2023-04-25T19:42:18;8.70;99.90
27896;DHT22;15241;48.374;10.876;2023-04-25T19:47:17;8.80;99.90
27896;DHT22;15241;48.374;10.876;2023-04-25T19:52:16;8.80;99.90
27896;DHT22;15241;48.374;10.876;2023-04-25T19:57:15;8.90;99.90
27896;DHT22;15241;48.374;10.876;2023-04-25T20:02:14;8.80;99.90
27896;DHT22;15241;48.374;10.876;2023-04-25T20:07:13;8.80;99.90
27896;DHT22;15241;48.374;10.876;2023-04-25T20:12:12;8.90;99.90
27896;DHT22;15241;48.374;10.876;2023-04-25T20:17:13;8.80;99.90
27896;DHT22;15241;48.374;10.876;2023-04-25T20:22:19;8.80;99.90
27896;DHT22;15241;48.374;10.876;2023-04-25T20:27:18;8.70;99.90
27896;DHT22;15241;48.374;10.876;2023-04-25T20:32:17;8.70;99.90
27896;DHT22;15241;48.374;10.876;2023-04-25T20:37:16;8.60;99.90
27896;DHT22;15241;48.374;10.876;2023-04-25T20:42:15;8.70;99.90
27896;DHT22;15241;48.374;10.876;2023-04-25T20:47:14;8.60;99.90
27896;DHT22;15241;48.374;10.876;2023-04-25T20:52:14;8.70;99.90
27896;DHT22;15241;48.374;10.876;2023-04-25T20:57:13;8.70;99.90
27896;DHT22;15241;48.374;10.876;2023-04-25T21:02:12;8.60;99.90
27896;DHT22;15241;48.374;10.876;2023-04-25T21:07:12;8.50;99.90
27896;DHT22;15241;48.374;10.876;2023-04-25T21:12:11;8.50;99.90
27896;DHT22;15241;48.374;10.876;2023-04-25T21:17:10;8.50;99.90
27896;DHT22;15241;48.374;10.876;2023-04-25T21:22:10;8.50;99.90
27896;DHT22;15241;48.374;10.876;2023-04-25T21:27:09;8.50;99.90
27896;DHT22;15241;48.374;10.876;2023-04-25T21:32:08;8.60;99.90
27896;DHT22;15241;48.374;10.876;2023-04-25T21:37:07;8.60;99.90
27896;DHT22;15241;48.374;10.876;2023-04-25T21:42:06;8.60;99.90
27896;DHT22;15241;48.374;10.876;2023-04-25T21:47:05;8.60;99.90
27896;DHT22;15241;48.374;10.876;2023-04-25T21:52:04;8.60;99.90
27896;DHT22;15241;48.374;10.876;2023-04-25T21:57:03;8.50;99.90
27896;DHT22;15241;48.374;10.876;2023-04-25T22:02:02;8.60;99.90
27896;DHT22;15241;48.374;10.876;2023-04-25T22:07:01;8.50;99.90
27896;DHT22;15241;48.374;10.876;2023-04-25T22:12:00;8.50;99.90
27896;DHT22;15241;48.374;10.876;2023-04-25T22:16:59;8.60;99.90
27896;DHT22;15241;48.374;10.876;2023-04-25T22:21:58;8.60;99.90
27896;DHT22;15241;48.374;10.876;2023-04-25T22:26:57;8.60;99.90
27896;DHT22;15241;48.374;10.876;2023-04-25T22:31:56;8.60;99.90
27896;DHT22;15241;48.374;10.876;2023-04-25T22:36:55;8.60;99.90
27896;DHT22;15241;48.374;10.876;2023-04-25T22:41:54;8.60;99.90
27896;DHT22;15241;48.374;10.876;2023-04-25T22:46:53;8.60;99.90
27896;DHT22;15241;48.374;10.876;2023-04-25T22:51:51;8.60;99.90
27896;DHT22;15241;48.374;10.876;2023-04-25T22:56:50;8.60;99.90
27896;DHT22;15241;48.374;10.876;2023-04-25T23:06:58;8.60;99.90
27896;DHT22;15241;48.374;10.876;2023-04-25T23:11:57;8.60;99.90
27896;DHT22;15241;48.374;10.876;2023-04-25T23:16:55;8.60;99.90
27896;DHT22;15241;48.374;10.876;2023-04-25T23:21:55;8.50;99.90
27896;DHT22;15241;48.374;10.876;2023-04-25T23:26:53;8.50;99.90
27896;DHT22;15241;48.374;10.876;2023-04-25T23:31:52;8.40;99.90
27896;DHT22;15241;48.374;10.876;2023-04-25T23:36:51;8.30;99.90
27896;DHT22;15241;48.374;10.876;2023-04-25T23:41:50;8.40;99.90
27896;DHT22;15241;48.374;10.876;2023-04-25T23:46:49;8.40;99.90
27896;DHT22;15241;48.374;10.876;2023-04-25T23:51:48;8.30;99.90
27896;DHT22;15241;48.374;10.876;2023-04-25T23:56:47;8.30;99.90
